sensor_id;sensor_type;location;lat;lon;timestamp;P1;durP1;ratioP1;P2;durP2;ratioP2
8349;SDS011;60699;48.946;8.412;2024-03-02T00:01:58;2.83;;;2.63;;
8349;SDS011;60699;48.946;8.412;2024-03-02T00:04:27;5.13;;;3.25;;
8349;SDS011;60699;48.946;8.412;2024-03-02T00:06:54;3.35;;;3.15;;
8349;SDS011;60699;48.946;8.412;2024-03-02T00:09:21;3.53;;;3.13;;
8349;SDS011;60699;48.946;8.412;2024-03-02T00:11:47;3.17;;;2.70;;
8349;SDS011;60699;48.946;8.412;2024-03-02T00:14:16;2.83;;;2.55;;
8349;SDS011;60699;48.946;8.412;2024-03-02T00:16:43;3.22;;;2.92;;
8349;SDS011;60699;48.946;8.412;2024-03-02T00:19:10;3.10;;;2.80;;
8349;SDS011;60699;48.946;8.412;2024-03-02T00:21:39;5.78;;;3.03;;
8349;SDS011;60699;48.946;8.412;2024-03-02T00:24:07;4.05;;;3.30;;
8349;SDS011;60699;48.946;8.412;2024-03-02T00:26:44;4.75;;;3.20;;
8349;SDS011;60699;48.946;8.412;2024-03-02T00:29:11;2.80;;;2.60;;
8349;SDS011;60699;48.946;8.412;2024-03-02T00:31:41;3.30;;;3.00;;
8349;SDS011;60699;48.946;8.412;2024-03-02T00:34:08;3.70;;;2.85;;
8349;SDS011;60699;48.946;8.412;2024-03-02T00:36:36;3.22;;;3.03;;
8349;SDS011;60699;48.946;8.412;2024-03-02T00:39:04;3.33;;;2.95;;
8349;SDS011;60699;48.946;8.412;2024-03-02T00:41:32;3.38;;;2.72;;
8349;SDS011;60699;48.946;8.412;2024-03-02T00:44:01;2.30;;;2.20;;
8349;SDS011;60699;48.946;8.412;2024-03-02T00:46:29;2.92;;;2.72;;
8349;SDS011;60699;48.946;8.412;2024-03-02T00:48:58;3.38;;;3.13;;
8349;SDS011;60699;48.946;8.412;2024-03-02T00:51:25;3.60;;;3.30;;
8349;SDS011;60699;48.946;8.412;2024-03-02T00:53:53;3.17;;;2.97;;
8349;SDS011;60699;48.946;8.412;2024-03-02T00:56:23;3.42;;;3.15;;
8349;SDS011;60699;48.946;8.412;2024-03-02T00:58:50;2.80;;;2.60;;
8349;SDS011;60699;48.946;8.412;2024-03-02T01:01:17;3.17;;;2.92;;
8349;SDS011;60699;48.946;8.412;2024-03-02T01:03:44;3.08;;;2.78;;
8349;SDS011;60699;48.946;8.412;2024-03-02T01:06:11;2.63;;;2.42;;
8349;SDS011;60699;48.946;8.412;2024-03-02T01:08:39;2.53;;;2.30;;
8349;SDS011;60699;48.946;8.412;2024-03-02T01:11:06;3.05;;;2.75;;
8349;SDS011;60699;48.946;8.412;2024-03-02T01:13:34;2.17;;;2.08;;
8349;SDS011;60699;48.946;8.412;2024-03-02T01:16:01;2.75;;;2.55;;
8349;SDS011;60699;48.946;8.412;2024-03-02T01:18:29;2.45;;;2.25;;
8349;SDS011;60699;48.946;8.412;2024-03-02T01:20:56;3.00;;;2.47;;
8349;SDS011;60699;48.946;8.412;2024-03-02T01:23:23;2.70;;;2.05;;
8349;SDS011;60699;48.946;8.412;2024-03-02T01:25:50;2.38;;;2.28;;
8349;SDS011;60699;48.946;8.412;2024-03-02T01:28:18;3.03;;;2.40;;
8349;SDS011;60699;48.946;8.412;2024-03-02T01:30:47;3.00;;;2.67;;
8349;SDS011;60699;48.946;8.412;2024-03-02T01:33:14;2.00;;;1.80;;
8349;SDS011;60699;48.946;8.412;2024-03-02T01:35:41;1.80;;;1.70;;
8349;SDS011;60699;48.946;8.412;2024-03-02T01:38:08;2.60;;;2.40;;
8349;SDS011;60699;48.946;8.412;2024-03-02T01:40:35;3.55;;;2.10;;
8349;SDS011;60699;48.946;8.412;2024-03-02T01:43:03;2.80;;;2.50;;
8349;SDS011;60699;48.946;8.412;2024-03-02T01:45:31;3.35;;;3.15;;
8349;SDS011;60699;48.946;8.412;2024-03-02T01:47:59;2.97;;;2.30;;
8349;SDS011;60699;48.946;8.412;2024-03-02T01:50:27;2.60;;;2.40;;
8349;SDS011;60699;48.946;8.412;2024-03-02T01:52:54;2.08;;;1.95;;
8349;SDS011;60699;48.946;8.412;2024-03-02T01:55:21;2.38;;;2.17;;
8349;SDS011;60699;48.946;8.412;2024-03-02T01:57:48;2.20;;;2.10;;
8349;SDS011;60699;48.946;8.412;2024-03-02T02:00:17;2.25;;;2.15;;
8349;SDS011;60699;48.946;8.412;2024-03-02T02:02:44;1.88;;;1.77;;
8349;SDS011;60699;48.946;8.412;2024-03-02T02:05:12;2.20;;;2.10;;
8349;SDS011;60699;48.946;8.412;2024-03-02T02:07:40;2.05;;;1.95;;
8349;SDS011;60699;48.946;8.412;2024-03-02T02:10:07;1.80;;;1.70;;
8349;SDS011;60699;48.946;8.412;2024-03-02T02:12:35;2.50;;;2.20;;
8349;SDS011;60699;48.946;8.412;2024-03-02T02:15:02;2.03;;;1.92;;
8349;SDS011;60699;48.946;8.412;2024-03-02T02:17:30;3.22;;;2.42;;
8349;SDS011;60699;48.946;8.412;2024-03-02T02:19:57;2.80;;;2.60;;
8349;SDS011;60699;48.946;8.412;2024-03-02T02:22:26;2.20;;;2.00;;
8349;SDS011;60699;48.946;8.412;2024-03-02T02:24:53;1.92;;;1.83;;
8349;SDS011;60699;48.946;8.412;2024-03-02T02:27:20;2.35;;;2.10;;
8349;SDS011;60699;48.946;8.412;2024-03-02T02:29:47;2.50;;;2.30;;
8349;SDS011;60699;48.946;8.412;2024-03-02T02:32:14;2.38;;;2.17;;
8349;SDS011;60699;48.946;8.412;2024-03-02T02:34:41;1.90;;;1.80;;
8349;SDS011;60699;48.946;8.412;2024-03-02T02:37:08;2.38;;;2.17;;
8349;SDS011;60699;48.946;8.412;2024-03-02T02:39:36;2.00;;;1.90;;
8349;SDS011;60699;48.946;8.412;2024-03-02T02:42:03;2.30;;;2.10;;
8349;SDS011;60699;48.946;8.412;2024-03-02T02:44:30;2.65;;;2.20;;
8349;SDS011;60699;48.946;8.412;2024-03-02T02:46:57;1.85;;;1.75;;
8349;SDS011;60699;48.946;8.412;2024-03-02T02:49:24;3.78;;;2.25;;
8349;SDS011;60699;48.946;8.412;2024-03-02T02:51:51;1.85;;;1.75;;
8349;SDS011;60699;48.946;8.412;2024-03-02T02:54:18;2.95;;;2.05;;
8349;SDS011;60699;48.946;8.412;2024-03-02T02:56:47;2.20;;;2.10;;
8349;SDS011;60699;48.946;8.412;2024-03-02T02:59:14;2.00;;;1.90;;
8349;SDS011;60699;48.946;8.412;2024-03-02T03:01:41;2.75;;;2.28;;
8349;SDS011;60699;48.946;8.412;2024-03-02T03:04:08;3.03;;;2.20;;
8349;SDS011;60699;48.946;8.412;2024-03-02T03:06:35;1.90;;;1.77;;
8349;SDS011;60699;48.946;8.412;2024-03-02T03:09:02;2.10;;;2.00;;
8349;SDS011;60699;48.946;8.412;2024-03-02T03:11:29;2.55;;;2.20;;
8349;SDS011;60699;48.946;8.412;2024-03-02T03:13:57;2.10;;;2.00;;
8349;SDS011;60699;48.946;8.412;2024-03-02T03:16:25;2.33;;;2.13;;
8349;SDS011;60699;48.946;8.412;2024-03-02T03:18:52;2.65;;;2.00;;
8349;SDS011;60699;48.946;8.412;2024-03-02T03:21:19;1.77;;;1.55;;
8349;SDS011;60699;48.946;8.412;2024-03-02T03:23:46;2.22;;;2.03;;
8349;SDS011;60699;48.946;8.412;2024-03-02T03:26:13;1.73;;;1.63;;
8349;SDS011;60699;48.946;8.412;2024-03-02T03:28:40;1.95;;;1.80;;
8349;SDS011;60699;48.946;8.412;2024-03-02T03:31:08;2.08;;;1.88;;
8349;SDS011;60699;48.946;8.412;2024-03-02T03:33:35;2.10;;;1.75;;
8349;SDS011;60699;48.946;8.412;2024-03-02T03:36:02;2.05;;;1.95;;
8349;SDS011;60699;48.946;8.412;2024-03-02T03:38:29;1.80;;;1.70;;
8349;SDS011;60699;48.946;8.412;2024-03-02T03:40:56;3.08;;;1.90;;
8349;SDS011;60699;48.946;8.412;2024-03-02T03:43:23;1.95;;;1.85;;
8349;SDS011;60699;48.946;8.412;2024-03-02T03:45:51;1.70;;;1.60;;
8349;SDS011;60699;48.946;8.412;2024-03-02T03:48:18;2.03;;;1.83;;
8349;SDS011;60699;48.946;8.412;2024-03-02T03:50:45;2.00;;;1.90;;
8349;SDS011;60699;48.946;8.412;2024-03-02T03:53:12;1.88;;;1.77;;
8349;SDS011;60699;48.946;8.412;2024-03-02T03:55:40;1.60;;;1.50;;
8349;SDS011;60699;48.946;8.412;2024-03-02T03:58:07;1.85;;;1.75;;
8349;SDS011;60699;48.946;8.412;2024-03-02T04:00:34;2.10;;;1.90;;
8349;SDS011;60699;48.946;8.412;2024-03-02T04:03:01;1.80;;;1.73;;
8349;SDS011;60699;48.946;8.412;2024-03-02T04:05:30;1.80;;;1.70;;
8349;SDS011;60699;48.946;8.412;2024-03-02T04:07:57;1.67;;;1.58;;
8349;SDS011;60699;48.946;8.412;2024-03-02T04:10:25;1.73;;;1.63;;
8349;SDS011;60699;48.946;8.412;2024-03-02T04:12:52;2.28;;;2.17;;
8349;SDS011;60699;48.946;8.412;2024-03-02T04:15:19;2.45;;;2.00;;
8349;SDS011;60699;48.946;8.412;2024-03-02T04:17:45;1.90;;;1.80;;
8349;SDS011;60699;48.946;8.412;2024-03-02T04:20:13;3.15;;;1.77;;
8349;SDS011;60699;48.946;8.412;2024-03-02T04:22:41;1.60;;;1.50;;
8349;SDS011;60699;48.946;8.412;2024-03-02T04:25:08;1.73;;;1.63;;
8349;SDS011;60699;48.946;8.412;2024-03-02T04:27:35;1.75;;;1.65;;
8349;SDS011;60699;48.946;8.412;2024-03-02T04:30:03;1.90;;;1.70;;
8349;SDS011;60699;48.946;8.412;2024-03-02T04:32:30;2.00;;;1.90;;
8349;SDS011;60699;48.946;8.412;2024-03-02T04:34:57;2.00;;;1.90;;
8349;SDS011;60699;48.946;8.412;2024-03-02T04:37:24;2.33;;;2.13;;
8349;SDS011;60699;48.946;8.412;2024-03-02T04:39:53;1.92;;;1.83;;
8349;SDS011;60699;48.946;8.412;2024-03-02T04:42:20;1.90;;;1.80;;
8349;SDS011;60699;48.946;8.412;2024-03-02T04:44:47;1.80;;;1.70;;
8349;SDS011;60699;48.946;8.412;2024-03-02T04:47:14;2.00;;;1.90;;
8349;SDS011;60699;48.946;8.412;2024-03-02T04:49:41;1.92;;;1.80;;
8349;SDS011;60699;48.946;8.412;2024-03-02T04:52:08;1.83;;;1.73;;
8349;SDS011;60699;48.946;8.412;2024-03-02T04:54:35;2.17;;;2.08;;
8349;SDS011;60699;48.946;8.412;2024-03-02T04:57:23;3.35;;;1.60;;
8349;SDS011;60699;48.946;8.412;2024-03-02T04:59:50;2.72;;;2.00;;
8349;SDS011;60699;48.946;8.412;2024-03-02T05:02:17;1.80;;;1.70;;
8349;SDS011;60699;48.946;8.412;2024-03-02T05:04:45;2.00;;;1.90;;
8349;SDS011;60699;48.946;8.412;2024-03-02T05:07:13;1.80;;;1.70;;
8349;SDS011;60699;48.946;8.412;2024-03-02T05:09:41;3.20;;;2.00;;
8349;SDS011;60699;48.946;8.412;2024-03-02T05:12:08;1.90;;;1.80;;
8349;SDS011;60699;48.946;8.412;2024-03-02T05:15:01;1.40;;;1.30;;
8349;SDS011;60699;48.946;8.412;2024-03-02T05:17:28;1.60;;;1.50;;
8349;SDS011;60699;48.946;8.412;2024-03-02T05:19:55;1.88;;;1.77;;
8349;SDS011;60699;48.946;8.412;2024-03-02T05:22:22;1.73;;;1.65;;
8349;SDS011;60699;48.946;8.412;2024-03-02T05:24:49;2.10;;;1.80;;
8349;SDS011;60699;48.946;8.412;2024-03-02T05:27:16;1.95;;;1.85;;
8349;SDS011;60699;48.946;8.412;2024-03-02T05:29:43;1.80;;;1.70;;
8349;SDS011;60699;48.946;8.412;2024-03-02T05:32:12;1.48;;;1.38;;
8349;SDS011;60699;48.946;8.412;2024-03-02T05:34:39;1.90;;;1.80;;
8349;SDS011;60699;48.946;8.412;2024-03-02T05:37:06;2.47;;;1.60;;
8349;SDS011;60699;48.946;8.412;2024-03-02T05:39:33;2.25;;;2.08;;
8349;SDS011;60699;48.946;8.412;2024-03-02T05:42:00;2.60;;;2.40;;
8349;SDS011;60699;48.946;8.412;2024-03-02T05:44:28;1.33;;;1.33;;
8349;SDS011;60699;48.946;8.412;2024-03-02T05:46:55;1.90;;;1.80;;
8349;SDS011;60699;48.946;8.412;2024-03-02T05:49:24;1.92;;;1.83;;
8349;SDS011;60699;48.946;8.412;2024-03-02T05:51:51;5.88;;;4.30;;
8349;SDS011;60699;48.946;8.412;2024-03-02T05:54:18;2.13;;;2.00;;
8349;SDS011;60699;48.946;8.412;2024-03-02T05:56:45;3.10;;;2.45;;
8349;SDS011;60699;48.946;8.412;2024-03-02T05:59:12;1.80;;;1.70;;
8349;SDS011;60699;48.946;8.412;2024-03-02T06:01:41;1.98;;;1.77;;
8349;SDS011;60699;48.946;8.412;2024-03-02T06:04:08;2.33;;;2.22;;
8349;SDS011;60699;48.946;8.412;2024-03-02T06:06:38;2.20;;;2.10;;
8349;SDS011;60699;48.946;8.412;2024-03-02T06:09:05;1.85;;;1.75;;
8349;SDS011;60699;48.946;8.412;2024-03-02T06:11:33;1.98;;;1.88;;
8349;SDS011;60699;48.946;8.412;2024-03-02T06:14:00;2.08;;;1.98;;
8349;SDS011;60699;48.946;8.412;2024-03-02T06:16:27;2.00;;;1.80;;
8349;SDS011;60699;48.946;8.412;2024-03-02T06:18:54;1.70;;;1.60;;
8349;SDS011;60699;48.946;8.412;2024-03-02T06:21:22;1.75;;;1.65;;
8349;SDS011;60699;48.946;8.412;2024-03-02T06:23:51;1.63;;;1.52;;
8349;SDS011;60699;48.946;8.412;2024-03-02T06:26:18;1.80;;;1.70;;
8349;SDS011;60699;48.946;8.412;2024-03-02T06:28:45;5.43;;;2.03;;
8349;SDS011;60699;48.946;8.412;2024-03-02T06:31:12;2.80;;;2.60;;
8349;SDS011;60699;48.946;8.412;2024-03-02T06:33:39;1.80;;;1.70;;
8349;SDS011;60699;48.946;8.412;2024-03-02T06:36:06;2.15;;;1.92;;
8349;SDS011;60699;48.946;8.412;2024-03-02T06:38:34;2.22;;;2.00;;
8349;SDS011;60699;48.946;8.412;2024-03-02T06:41:03;2.20;;;2.00;;
8349;SDS011;60699;48.946;8.412;2024-03-02T06:43:30;2.00;;;1.90;;
8349;SDS011;60699;48.946;8.412;2024-03-02T06:45:57;2.38;;;2.15;;
8349;SDS011;60699;48.946;8.412;2024-03-02T06:48:24;2.50;;;2.40;;
8349;SDS011;60699;48.946;8.412;2024-03-02T06:50:51;1.90;;;1.80;;
8349;SDS011;60699;48.946;8.412;2024-03-02T06:53:18;2.00;;;1.90;;
8349;SDS011;60699;48.946;8.412;2024-03-02T06:55:46;2.90;;;2.70;;
8349;SDS011;60699;48.946;8.412;2024-03-02T06:58:14;2.42;;;2.22;;
8349;SDS011;60699;48.946;8.412;2024-03-02T07:00:41;2.47;;;2.28;;
8349;SDS011;60699;48.946;8.412;2024-03-02T07:03:09;2.20;;;2.05;;
8349;SDS011;60699;48.946;8.412;2024-03-02T07:05:36;2.67;;;1.73;;
8349;SDS011;60699;48.946;8.412;2024-03-02T07:08:03;2.95;;;1.98;;
8349;SDS011;60699;48.946;8.412;2024-03-02T07:10:31;4.50;;;2.50;;
8349;SDS011;60699;48.946;8.412;2024-03-02T07:12:58;2.78;;;2.58;;
8349;SDS011;60699;48.946;8.412;2024-03-02T07:15:26;4.90;;;3.40;;
8349;SDS011;60699;48.946;8.412;2024-03-02T07:18:12;3.92;;;3.63;;
8349;SDS011;60699;48.946;8.412;2024-03-02T07:20:39;3.55;;;3.25;;
8349;SDS011;60699;48.946;8.412;2024-03-02T07:23:06;3.10;;;2.85;;
8349;SDS011;60699;48.946;8.412;2024-03-02T07:25:34;2.42;;;2.22;;
8349;SDS011;60699;48.946;8.412;2024-03-02T07:28:01;3.30;;;2.97;;
8349;SDS011;60699;48.946;8.412;2024-03-02T07:30:30;2.60;;;2.40;;
8349;SDS011;60699;48.946;8.412;2024-03-02T07:32:57;5.55;;;2.67;;
8349;SDS011;60699;48.946;8.412;2024-03-02T07:35:24;2.95;;;2.75;;
8349;SDS011;60699;48.946;8.412;2024-03-02T07:37:52;2.65;;;2.47;;
8349;SDS011;60699;48.946;8.412;2024-03-02T07:40:20;2.35;;;2.15;;
8349;SDS011;60699;48.946;8.412;2024-03-02T07:42:47;2.20;;;2.10;;
8349;SDS011;60699;48.946;8.412;2024-03-02T07:45:14;2.50;;;2.30;;
8349;SDS011;60699;48.946;8.412;2024-03-02T07:47:42;3.20;;;2.95;;
8349;SDS011;60699;48.946;8.412;2024-03-02T07:50:10;3.88;;;2.60;;
8349;SDS011;60699;48.946;8.412;2024-03-02T07:52:37;3.10;;;2.90;;
8349;SDS011;60699;48.946;8.412;2024-03-02T07:55:04;3.38;;;2.90;;
8349;SDS011;60699;48.946;8.412;2024-03-02T07:57:31;4.13;;;2.88;;
8349;SDS011;60699;48.946;8.412;2024-03-02T07:59:58;4.53;;;2.95;;
8349;SDS011;60699;48.946;8.412;2024-03-02T08:02:25;3.80;;;3.50;;
8349;SDS011;60699;48.946;8.412;2024-03-02T08:04:54;4.97;;;3.55;;
8349;SDS011;60699;48.946;8.412;2024-03-02T08:07:21;2.72;;;2.45;;
8349;SDS011;60699;48.946;8.412;2024-03-02T08:09:48;3.33;;;3.00;;
8349;SDS011;60699;48.946;8.412;2024-03-02T08:12:15;3.05;;;2.85;;
8349;SDS011;60699;48.946;8.412;2024-03-02T08:14:43;3.25;;;2.80;;
8349;SDS011;60699;48.946;8.412;2024-03-02T08:17:10;3.40;;;2.65;;
8349;SDS011;60699;48.946;8.412;2024-03-02T08:19:37;5.47;;;2.97;;
8349;SDS011;60699;48.946;8.412;2024-03-02T08:22:05;4.55;;;3.05;;
8349;SDS011;60699;48.946;8.412;2024-03-02T08:24:33;3.30;;;3.05;;
8349;SDS011;60699;48.946;8.412;2024-03-02T08:27:00;3.22;;;2.92;;
8349;SDS011;60699;48.946;8.412;2024-03-02T08:29:27;4.25;;;3.72;;
8349;SDS011;60699;48.946;8.412;2024-03-02T08:31:54;2.80;;;2.50;;
8349;SDS011;60699;48.946;8.412;2024-03-02T08:34:21;2.97;;;2.78;;
8349;SDS011;60699;48.946;8.412;2024-03-02T08:36:48;3.70;;;2.75;;
8349;SDS011;60699;48.946;8.412;2024-03-02T08:39:17;3.92;;;2.58;;
8349;SDS011;60699;48.946;8.412;2024-03-02T08:41:45;3.10;;;2.90;;
8349;SDS011;60699;48.946;8.412;2024-03-02T08:44:13;2.42;;;2.20;;
8349;SDS011;60699;48.946;8.412;2024-03-02T08:46:40;2.80;;;2.60;;
8349;SDS011;60699;48.946;8.412;2024-03-02T08:49:08;3.45;;;3.15;;
8349;SDS011;60699;48.946;8.412;2024-03-02T08:51:35;3.10;;;2.90;;
8349;SDS011;60699;48.946;8.412;2024-03-02T08:54:02;2.80;;;2.58;;
8349;SDS011;60699;48.946;8.412;2024-03-02T08:56:31;3.13;;;2.90;;
8349;SDS011;60699;48.946;8.412;2024-03-02T08:58:58;3.42;;;3.10;;
8349;SDS011;60699;48.946;8.412;2024-03-02T09:01:25;3.30;;;3.10;;
8349;SDS011;60699;48.946;8.412;2024-03-02T09:03:52;2.92;;;2.70;;
8349;SDS011;60699;48.946;8.412;2024-03-02T09:06:19;2.80;;;2.60;;
8349;SDS011;60699;48.946;8.412;2024-03-02T09:08:46;3.03;;;2.60;;
8349;SDS011;60699;48.946;8.412;2024-03-02T09:11:14;2.70;;;2.50;;
8349;SDS011;60699;48.946;8.412;2024-03-02T09:13:43;2.80;;;2.60;;
8349;SDS011;60699;48.946;8.412;2024-03-02T09:16:10;3.30;;;3.10;;
8349;SDS011;60699;48.946;8.412;2024-03-02T09:18:37;3.40;;;2.97;;
8349;SDS011;60699;48.946;8.412;2024-03-02T09:21:04;4.63;;;2.95;;
8349;SDS011;60699;48.946;8.412;2024-03-02T09:23:31;2.58;;;2.38;;
8349;SDS011;60699;48.946;8.412;2024-03-02T09:25:58;3.47;;;3.05;;
8349;SDS011;60699;48.946;8.412;2024-03-02T09:28:25;2.70;;;2.50;;
8349;SDS011;60699;48.946;8.412;2024-03-02T09:30:54;3.88;;;3.20;;
8349;SDS011;60699;48.946;8.412;2024-03-02T09:33:21;3.55;;;3.25;;
8349;SDS011;60699;48.946;8.412;2024-03-02T09:35:48;3.25;;;2.95;;
8349;SDS011;60699;48.946;8.412;2024-03-02T09:38:15;2.90;;;2.70;;
8349;SDS011;60699;48.946;8.412;2024-03-02T09:40:42;3.97;;;3.58;;
8349;SDS011;60699;48.946;8.412;2024-03-02T09:43:09;3.30;;;3.05;;
8349;SDS011;60699;48.946;8.412;2024-03-02T09:45:36;2.92;;;2.72;;
8349;SDS011;60699;48.946;8.412;2024-03-02T09:48:06;3.58;;;3.28;;
8349;SDS011;60699;48.946;8.412;2024-03-02T09:50:33;3.50;;;3.20;;
8349;SDS011;60699;48.946;8.412;2024-03-02T09:53:00;3.75;;;3.45;;
8349;SDS011;60699;48.946;8.412;2024-03-02T09:55:27;3.85;;;3.50;;
8349;SDS011;60699;48.946;8.412;2024-03-02T09:57:54;3.58;;;3.15;;
8349;SDS011;60699;48.946;8.412;2024-03-02T10:00:21;3.25;;;3.03;;
8349;SDS011;60699;48.946;8.412;2024-03-02T10:02:48;3.75;;;3.45;;
8349;SDS011;60699;48.946;8.412;2024-03-02T10:05:24;3.92;;;3.08;;
8349;SDS011;60699;48.946;8.412;2024-03-02T10:07:58;3.90;;;3.60;;
8349;SDS011;60699;48.946;8.412;2024-03-02T10:10:26;3.70;;;3.40;;
8349;SDS011;60699;48.946;8.412;2024-03-02T10:13:03;3.22;;;3.03;;
8349;SDS011;60699;48.946;8.412;2024-03-02T10:15:31;2.70;;;2.50;;
8349;SDS011;60699;48.946;8.412;2024-03-02T10:17:58;3.90;;;3.47;;
8349;SDS011;60699;48.946;8.412;2024-03-02T10:20:26;4.20;;;3.42;;
8349;SDS011;60699;48.946;8.412;2024-03-02T10:22:54;3.10;;;2.90;;
8349;SDS011;60699;48.946;8.412;2024-03-02T10:25:28;4.75;;;3.60;;
8349;SDS011;60699;48.946;8.412;2024-03-02T10:27:56;3.40;;;2.95;;
8349;SDS011;60699;48.946;8.412;2024-03-02T10:30:24;3.78;;;2.70;;
8349;SDS011;60699;48.946;8.412;2024-03-02T10:32:51;3.35;;;3.05;;
8349;SDS011;60699;48.946;8.412;2024-03-02T10:35:19;3.10;;;2.80;;
8349;SDS011;60699;48.946;8.412;2024-03-02T10:37:48;3.03;;;2.83;;
8349;SDS011;60699;48.946;8.412;2024-03-02T10:40:15;2.70;;;2.50;;
8349;SDS011;60699;48.946;8.412;2024-03-02T10:42:42;5.28;;;3.72;;
8349;SDS011;60699;48.946;8.412;2024-03-02T10:45:10;2.80;;;2.60;;
8349;SDS011;60699;48.946;8.412;2024-03-02T10:47:38;2.92;;;2.72;;
8349;SDS011;60699;48.946;8.412;2024-03-02T10:50:06;3.42;;;2.92;;
8349;SDS011;60699;48.946;8.412;2024-03-02T10:52:34;3.17;;;2.97;;
8349;SDS011;60699;48.946;8.412;2024-03-02T10:55:02;3.20;;;3.00;;
8349;SDS011;60699;48.946;8.412;2024-03-02T10:57:32;3.00;;;2.80;;
8349;SDS011;60699;48.946;8.412;2024-03-02T11:00:02;2.40;;;2.20;;
8349;SDS011;60699;48.946;8.412;2024-03-02T11:02:29;2.92;;;2.30;;
8349;SDS011;60699;48.946;8.412;2024-03-02T11:04:57;2.50;;;2.30;;
8349;SDS011;60699;48.946;8.412;2024-03-02T11:07:26;4.05;;;2.35;;
8349;SDS011;60699;48.946;8.412;2024-03-02T11:09:55;4.40;;;3.00;;
8349;SDS011;60699;48.946;8.412;2024-03-02T11:12:27;2.72;;;2.50;;
8349;SDS011;60699;48.946;8.412;2024-03-02T11:14:55;4.72;;;2.30;;
8349;SDS011;60699;48.946;8.412;2024-03-02T11:17:22;2.72;;;2.53;;
8349;SDS011;60699;48.946;8.412;2024-03-02T11:19:50;3.53;;;2.15;;
8349;SDS011;60699;48.946;8.412;2024-03-02T11:22:17;3.00;;;2.70;;
8349;SDS011;60699;48.946;8.412;2024-03-02T11:24:48;2.50;;;2.20;;
8349;SDS011;60699;48.946;8.412;2024-03-02T11:27:15;3.58;;;1.95;;
8349;SDS011;60699;48.946;8.412;2024-03-02T11:30:04;2.50;;;2.30;;
8349;SDS011;60699;48.946;8.412;2024-03-02T11:32:31;2.10;;;2.00;;
8349;SDS011;60699;48.946;8.412;2024-03-02T11:34:58;2.28;;;2.15;;
8349;SDS011;60699;48.946;8.412;2024-03-02T11:37:25;2.40;;;2.30;;
8349;SDS011;60699;48.946;8.412;2024-03-02T11:39:52;2.60;;;2.40;;
8349;SDS011;60699;48.946;8.412;2024-03-02T11:42:19;2.05;;;1.95;;
8349;SDS011;60699;48.946;8.412;2024-03-02T11:44:46;1.90;;;1.80;;
8349;SDS011;60699;48.946;8.412;2024-03-02T11:47:15;2.53;;;1.50;;
8349;SDS011;60699;48.946;8.412;2024-03-02T11:49:43;1.70;;;1.60;;
8349;SDS011;60699;48.946;8.412;2024-03-02T11:52:11;2.15;;;1.95;;
8349;SDS011;60699;48.946;8.412;2024-03-02T11:54:39;2.78;;;2.58;;
8349;SDS011;60699;48.946;8.412;2024-03-02T11:57:11;1.70;;;1.60;;
8349;SDS011;60699;48.946;8.412;2024-03-02T11:59:38;2.10;;;1.90;;
8349;SDS011;60699;48.946;8.412;2024-03-02T12:02:06;1.63;;;1.52;;
8349;SDS011;60699;48.946;8.412;2024-03-02T12:04:34;3.90;;;1.85;;
8349;SDS011;60699;48.946;8.412;2024-03-02T12:07:01;1.52;;;1.42;;
8349;SDS011;60699;48.946;8.412;2024-03-02T12:09:28;1.55;;;1.38;;
8349;SDS011;60699;48.946;8.412;2024-03-02T12:12:03;1.60;;;1.50;;
8349;SDS011;60699;48.946;8.412;2024-03-02T12:14:30;1.70;;;1.60;;
8349;SDS011;60699;48.946;8.412;2024-03-02T12:16:57;1.75;;;1.60;;
8349;SDS011;60699;48.946;8.412;2024-03-02T12:19:24;1.50;;;1.40;;
8349;SDS011;60699;48.946;8.412;2024-03-02T12:21:53;2.00;;;1.90;;
8349;SDS011;60699;48.946;8.412;2024-03-02T12:24:20;2.55;;;1.60;;
8349;SDS011;60699;48.946;8.412;2024-03-02T12:26:48;1.52;;;1.42;;
8349;SDS011;60699;48.946;8.412;2024-03-02T12:29:15;2.97;;;1.50;;
8349;SDS011;60699;48.946;8.412;2024-03-02T12:31:42;2.10;;;1.90;;
8349;SDS011;60699;48.946;8.412;2024-03-02T12:34:11;1.95;;;1.75;;
8349;SDS011;60699;48.946;8.412;2024-03-02T12:36:38;1.77;;;1.67;;
8349;SDS011;60699;48.946;8.412;2024-03-02T12:39:08;2.08;;;1.90;;
8349;SDS011;60699;48.946;8.412;2024-03-02T12:41:35;2.08;;;1.80;;
8349;SDS011;60699;48.946;8.412;2024-03-02T12:44:03;2.30;;;1.85;;
8349;SDS011;60699;48.946;8.412;2024-03-02T12:46:29;3.13;;;1.85;;
8349;SDS011;60699;48.946;8.412;2024-03-02T12:48:56;1.98;;;1.85;;
8349;SDS011;60699;48.946;8.412;2024-03-02T12:51:24;1.50;;;1.40;;
8349;SDS011;60699;48.946;8.412;2024-03-02T12:53:54;1.80;;;1.70;;
8349;SDS011;60699;48.946;8.412;2024-03-02T12:56:22;3.08;;;2.13;;
8349;SDS011;60699;48.946;8.412;2024-03-02T12:58:52;2.20;;;2.00;;
8349;SDS011;60699;48.946;8.412;2024-03-02T13:01:20;2.90;;;2.60;;
8349;SDS011;60699;48.946;8.412;2024-03-02T13:03:48;2.03;;;1.92;;
8349;SDS011;60699;48.946;8.412;2024-03-02T13:06:16;2.40;;;2.20;;
8349;SDS011;60699;48.946;8.412;2024-03-02T13:08:44;2.85;;;2.65;;
8349;SDS011;60699;48.946;8.412;2024-03-02T13:11:12;2.85;;;2.60;;
8349;SDS011;60699;48.946;8.412;2024-03-02T13:13:40;2.47;;;2.30;;
8349;SDS011;60699;48.946;8.412;2024-03-02T13:16:08;2.50;;;2.30;;
8349;SDS011;60699;48.946;8.412;2024-03-02T13:18:35;2.13;;;2.00;;
8349;SDS011;60699;48.946;8.412;2024-03-02T13:21:02;2.30;;;2.00;;
8349;SDS011;60699;48.946;8.412;2024-03-02T13:23:29;3.03;;;2.45;;
8349;SDS011;60699;48.946;8.412;2024-03-02T13:25:56;2.40;;;2.15;;
8349;SDS011;60699;48.946;8.412;2024-03-02T13:28:24;2.60;;;2.40;;
8349;SDS011;60699;48.946;8.412;2024-03-02T13:30:52;2.60;;;2.40;;
8349;SDS011;60699;48.946;8.412;2024-03-02T13:33:19;5.00;;;3.30;;
8349;SDS011;60699;48.946;8.412;2024-03-02T13:35:47;3.17;;;2.10;;
8349;SDS011;60699;48.946;8.412;2024-03-02T13:38:15;2.25;;;1.92;;
8349;SDS011;60699;48.946;8.412;2024-03-02T13:40:42;2.78;;;2.58;;
8349;SDS011;60699;48.946;8.412;2024-03-02T13:43:09;2.95;;;2.20;;
8349;SDS011;60699;48.946;8.412;2024-03-02T13:45:37;2.50;;;2.30;;
8349;SDS011;60699;48.946;8.412;2024-03-02T13:48:06;3.80;;;2.58;;
8349;SDS011;60699;48.946;8.412;2024-03-02T13:50:33;2.10;;;2.00;;
8349;SDS011;60699;48.946;8.412;2024-03-02T13:53:00;2.20;;;2.05;;
8349;SDS011;60699;48.946;8.412;2024-03-02T13:55:28;2.33;;;2.22;;
8349;SDS011;60699;48.946;8.412;2024-03-02T13:57:55;2.65;;;1.90;;
8349;SDS011;60699;48.946;8.412;2024-03-02T14:00:22;2.70;;;2.50;;
8349;SDS011;60699;48.946;8.412;2024-03-02T14:02:49;2.45;;;2.00;;
8349;SDS011;60699;48.946;8.412;2024-03-02T14:05:17;3.63;;;3.42;;
8349;SDS011;60699;48.946;8.412;2024-03-02T14:07:44;2.58;;;2.38;;
8349;SDS011;60699;48.946;8.412;2024-03-02T14:10:11;3.05;;;2.85;;
8349;SDS011;60699;48.946;8.412;2024-03-02T14:12:40;2.58;;;2.38;;
8349;SDS011;60699;48.946;8.412;2024-03-02T14:15:07;2.75;;;2.55;;
8349;SDS011;60699;48.946;8.412;2024-03-02T14:17:34;2.10;;;2.00;;
8349;SDS011;60699;48.946;8.412;2024-03-02T14:20:02;2.40;;;2.20;;
8349;SDS011;60699;48.946;8.412;2024-03-02T14:22:31;2.13;;;1.92;;
8349;SDS011;60699;48.946;8.412;2024-03-02T14:24:59;6.80;;;4.45;;
8349;SDS011;60699;48.946;8.412;2024-03-02T14:27:26;4.60;;;3.85;;
8349;SDS011;60699;48.946;8.412;2024-03-02T14:29:53;6.35;;;5.75;;
8349;SDS011;60699;48.946;8.412;2024-03-02T14:32:20;5.43;;;4.60;;
8349;SDS011;60699;48.946;8.412;2024-03-02T14:34:47;14.95;;;10.65;;
8349;SDS011;60699;48.946;8.412;2024-03-02T14:37:14;6.18;;;5.10;;
8349;SDS011;60699;48.946;8.412;2024-03-02T14:39:42;8.50;;;5.90;;
8349;SDS011;60699;48.946;8.412;2024-03-02T14:42:09;6.28;;;4.85;;
8349;SDS011;60699;48.946;8.412;2024-03-02T14:44:36;7.97;;;6.72;;
8349;SDS011;60699;48.946;8.412;2024-03-02T14:47:04;6.47;;;5.30;;
8349;SDS011;60699;48.946;8.412;2024-03-02T14:49:32;2.75;;;2.55;;
8349;SDS011;60699;48.946;8.412;2024-03-02T14:52:01;3.10;;;2.80;;
8349;SDS011;60699;48.946;8.412;2024-03-02T14:54:29;2.05;;;1.95;;
8349;SDS011;60699;48.946;8.412;2024-03-02T14:56:57;2.70;;;2.50;;
8349;SDS011;60699;48.946;8.412;2024-03-02T14:59:24;1.88;;;1.77;;
8349;SDS011;60699;48.946;8.412;2024-03-02T15:01:53;2.20;;;2.10;;
8349;SDS011;60699;48.946;8.412;2024-03-02T15:04:20;3.10;;;2.80;;